Time;durP1;ratioP1;P1;durP2;ratioP2;P2;SDS_P1;SDS_P2;PMS_P1;PMS_P2;Temp;Humidity;BMP_temperature;BMP_pressure;BME280_temperature;BME280_humidity;BME280_pressure;Samples;Min_cycle;Max_cycle;Signal;HPM_P1;HPM_P2
2022/12/22 03:26:37;;;;;;;58.90;22.95;;;;;;;1.78;100.00;98762.50;4500733;31;20133;-72
2022/12/22 03:29:05;;;;;;;64.18;24.80;;;;;;;1.74;100.00;98760.97;4500905;31;20092;-72
2022/12/22 03:31:32;;;;;;;61.20;25.17;;;;;;;1.61;100.00;98755.66;4500604;31;20113;-72
2022/12/22 03:33:59;;;;;;;59.88;23.85;;;;;;;1.71;100.00;98755.97;4500728;31;20092;-72
2022/12/22 03:36:27;;;;;;;60.65;24.92;;;;;;;1.68;100.00;98744.09;4500573;31;20171;-72
2022/12/22 03:38:54;;;;;;;57.05;22.80;;;;;;;1.62;100.00;98740.97;4500528;31;20100;-72
2022/12/22 03:46:52;;;;;;;65.78;23.95;;;;;;;1.70;100.00;98731.09;4500411;31;20091;-72
2022/12/22 03:49:21;;;;;;;70.60;26.37;;;;;;;1.68;100.00;98733.75;4500485;31;20076;-72
2022/12/22 03:51:49;;;;;;;67.07;25.55;;;;;;;1.62;100.00;98730.66;4500325;31;20180;-72
2022/12/22 03:54:22;;;;;;;62.30;23.70;;;;;;;1.69;100.00;98737.16;4500479;31;20085;-71
2022/12/22 03:56:50;;;;;;;69.45;25.12;;;;;;;1.50;100.00;98743.31;4500380;31;20087;-72
2022/12/22 03:59:18;;;;;;;67.35;25.35;;;;;;;1.52;100.00;98749.22;4500434;31;20118;-72
2022/12/22 04:01:47;;;;;;;73.60;25.80;;;;;;;1.56;100.00;98747.28;4500318;31;20072;-72
2022/12/22 04:04:16;;;;;;;69.57;24.92;;;;;;;1.57;100.00;98747.22;4500245;31;20389;-72
2022/12/22 04:06:44;;;;;;;65.70;25.08;;;;;;;1.62;100.00;98748.72;4500424;31;20844;-72
2022/12/22 04:09:11;;;;;;;66.90;25.80;;;;;;;1.58;100.00;98756.63;4500169;31;20108;-72
2022/12/22 04:14:25;;;;;;;64.45;24.20;;;;;;;1.46;100.00;98772.75;4500566;31;20092;-72
2022/12/22 04:17:04;;;;;;;58.08;22.08;;;;;;;1.38;100.00;98769.75;4501803;31;20096;-72
2022/12/22 04:19:32;;;;;;;59.63;22.42;;;;;;;1.43;100.00;98770.34;4502280;31;20118;-72
2022/12/22 04:21:59;;;;;;;53.97;22.70;;;;;;;1.39;100.00;98766.25;4501863;31;20110;-72
2022/12/22 04:24:27;;;;;;;58.55;22.67;;;;;;;1.41;100.00;98767.84;4502038;31;20092;-72
2022/12/22 04:26:54;;;;;;;59.92;23.83;;;;;;;1.28;100.00;98769.38;4501951;31;20597;-72
2022/12/22 04:29:21;;;;;;;61.88;23.62;;;;;;;1.39;100.00;98767.09;4502289;31;20830;-72
2022/12/22 04:31:48;;;;;;;57.25;23.55;;;;;;;1.47;100.00;98760.69;4502024;31;20118;-72
2022/12/22 04:34:15;;;;;;;60.75;22.95;;;;;;;1.52;100.00;98756.94;4502100;31;20100;-72
2022/12/22 04:36:43;;;;;;;58.30;23.35;;;;;;;1.53;100.00;98750.03;4502169;31;20191;-72
2022/12/22 04:39:10;;;;;;;59.20;23.35;;;;;;;1.54;100.00;98738.81;4501972;31;20174;-72
2022/12/22 04:41:37;;;;;;;51.85;21.95;;;;;;;1.55;100.00;98738.72;4501784;31;20885;-72
2022/12/22 04:44:04;;;;;;;60.60;24.30;;;;;;;1.57;100.00;98736.06;4501953;31;20100;-72
2022/12/22 04:46:32;;;;;;;57.03;22.48;;;;;;;1.58;100.00;98735.97;4502082;31;20159;-72
2022/12/22 04:48:59;;;;;;;53.45;21.87;;;;;;;1.57;100.00;98739.47;4501996;31;20556;-72
2022/12/22 04:51:27;;;;;;;61.28;22.17;;;;;;;1.55;100.00;98746.47;4501894;31;20111;-72
2022/12/22 04:53:56;;;;;;;52.25;21.33;;;;;;;1.64;100.00;98749.50;4501885;31;20100;-72
2022/12/22 04:56:23;;;;;;;55.97;22.08;;;;;;;1.63;100.00;98742.66;4501974;31;20096;-72
2022/12/22 04:58:53;;;;;;;61.13;22.30;;;;;;;1.64;100.00;98744.31;4501888;31;20460;-72
2022/12/22 05:01:20;;;;;;;57.15;22.87;;;;;;;1.56;100.00;98732.66;4501703;31;20465;-72
2022/12/22 05:03:47;;;;;;;58.87;21.98;;;;;;;1.62;100.00;98738.38;4501725;31;20104;-72
2022/12/22 05:06:15;;;;;;;56.90;22.08;;;;;;;1.64;100.00;98732.25;4501916;31;20488;-72
2022/12/22 05:08:42;;;;;;;54.17;21.67;;;;;;;1.53;100.00;98727.66;4501481;31;20512;-72
2022/12/22 05:11:10;;;;;;;61.05;23.70;;;;;;;1.54;100.00;98734.47;4501936;31;20168;-72
2022/12/22 05:13:37;;;;;;;56.10;22.27;;;;;;;1.51;100.00;98744.13;4501390;31;20449;-72
2022/12/22 05:16:09;;;;;;;55.72;21.87;;;;;;;1.56;100.00;98742.13;4501771;31;20608;-72
2022/12/22 05:18:38;;;;;;;59.53;21.77;;;;;;;1.60;100.00;98735.87;4501542;31;20083;-72
2022/12/22 05:21:16;;;;;;;60.55;21.77;;;;;;;1.63;100.00;98737.50;4501708;31;20452;-72
2022/12/22 05:23:44;;;;;;;54.33;21.85;;;;;;;1.67;100.00;98736.41;4501426;31;20152;-72
2022/12/22 05:26:13;;;;;;;52.13;21.27;;;;;;;1.65;100.00;98739.09;4501370;31;20139;-73
2022/12/22 05:28:41;;;;;;;55.67;21.37;;;;;;;1.70;100.00;98747.41;4500334;31;20151;-73
2022/12/22 05:31:13;;;;;;;52.10;21.27;;;;;;;1.62;100.00;98753.88;4501006;31;20100;-73
2022/12/22 05:33:41;;;;;;;57.58;23.40;;;;;;;1.64;100.00;98750.31;4499759;31;20167;-73
2022/12/22 05:36:08;;;;;;;58.85;22.08;;;;;;;1.63;100.00;98748.63;4501215;31;20084;-73
2022/12/22 05:38:35;;;;;;;59.38;24.60;;;;;;;1.65;100.00;98740.81;4501465;31;20118;-73
2022/12/22 05:41:02;;;;;;;65.60;24.87;;;;;;;1.41;100.00;98734.28;4501375;31;20606;-73
2022/12/22 05:43:34;;;;;;;60.70;23.58;;;;;;;1.48;100.00;98742.53;4500590;31;20096;-73
2022/12/22 05:46:06;;;;;;;61.83;23.95;;;;;;;1.48;100.00;98732.22;4501555;31;20497;-72
2022/12/22 05:48:34;;;;;;;67.37;25.50;;;;;;;1.44;100.00;98740.19;4499718;31;20445;-72
2022/12/22 05:51:07;;;;;;;65.43;24.67;;;;;;;1.44;100.00;98732.44;4499793;31;20476;-73
2022/12/22 05:53:35;;;;;;;66.85;25.73;;;;;;;1.47;100.00;98722.81;4500824;31;20164;-72
2022/12/22 05:56:03;;;;;;;71.82;25.10;;;;;;;1.41;100.00;98730.88;4501483;31;20100;-72
2022/12/22 05:58:30;;;;;;;60.92;25.35;;;;;;;1.37;100.00;98729.38;4500492;31;20477;-73
2022/12/22 06:00:59;;;;;;;60.20;23.17;;;;;;;1.37;100.00;98724.19;4501141;31;20123;-72
2022/12/22 06:03:27;;;;;;;68.70;26.80;;;;;;;1.34;100.00;98726.94;4500148;31;20100;-72
2022/12/22 06:05:54;;;;;;;66.30;26.37;;;;;;;1.30;100.00;98735.75;4500557;31;20100;-72
2022/12/22 06:08:22;;;;;;;61.42;22.37;;;;;;;1.32;100.00;98731.38;4500314;31;20171;-72
2022/12/22 06:10:53;;;;;;;67.15;26.27;;;;;;;1.33;100.00;98730.44;4500834;31;20144;-72
2022/12/22 06:13:20;;;;;;;63.78;24.83;;;;;;;1.41;100.00;98736.03;4500776;31;20157;-72
2022/12/22 06:15:48;;;;;;;63.85;25.80;;;;;;;1.38;100.00;98729.28;4500449;31;20600;-72
2022/12/22 06:18:15;;;;;;;65.72;26.20;;;;;;;1.48;100.00;98728.81;4500972;31;20513;-72
2022/12/22 06:20:45;;;;;;;63.70;26.60;;;;;;;1.50;100.00;98725.22;4501077;31;20175;-72
2022/12/22 06:23:12;;;;;;;67.87;24.85;;;;;;;1.48;100.00;98728.81;4499899;31;20095;-72
2022/12/22 06:25:40;;;;;;;75.07;27.83;;;;;;;1.47;100.00;98727.97;4501077;31;20416;-72
2022/12/22 06:28:07;;;;;;;78.57;29.67;;;;;;;1.50;100.00;98732.12;4500693;31;20163;-72
2022/12/22 06:30:34;;;;;;;82.97;28.02;;;;;;;1.32;100.00;98731.38;4499805;31;20092;-72
2022/12/22 06:35:52;;;;;;;80.28;30.33;;;;;;;1.16;100.00;98732.12;4393981;32;20097;-95
2022/12/22 06:38:26;;;;;;;88.90;29.67;;;;;;;1.16;100.00;98739.88;4380844;32;20094;-94
2022/12/22 06:40:53;;;;;;;73.60;29.95;;;;;;;1.13;100.00;98747.78;4392937;32;20098;-92
2022/12/22 06:43:20;;;;;;;77.03;29.08;;;;;;;1.11;100.00;98746.19;4392982;32;20486;-93
2022/12/22 06:45:48;;;;;;;66.22;26.25;;;;;;;1.13;100.00;98749.53;4392899;32;20124;-93
2022/12/22 06:48:15;;;;;;;79.30;29.12;;;;;;;1.19;100.00;98750.03;4393151;32;20121;-94
2022/12/22 06:50:42;;;;;;;76.22;28.45;;;;;;;1.21;100.00;98753.41;4392785;32;20113;-93
2022/12/22 06:53:10;;;;;;;81.30;27.50;;;;;;;1.15;100.00;98753.72;4404288;32;20169;-93
2022/12/22 06:55:37;;;;;;;72.68;27.65;;;;;;;1.24;100.00;98758.41;4391843;32;20098;-93
2022/12/22 06:58:04;;;;;;;65.55;26.33;;;;;;;1.34;100.00;98756.16;4393799;32;20527;-94
2022/12/22 07:00:32;;;;;;;69.85;27.62;;;;;;;1.41;100.00;98759.28;4394254;32;20444;-95
2022/12/22 07:02:59;;;;;;;68.07;26.67;;;;;;;1.42;100.00;98751.44;4405692;32;20118;-94
2022/12/22 07:05:30;;;;;;;58.28;23.95;;;;;;;1.45;100.00;98755.59;4381172;32;20164;-95
2022/12/22 07:07:58;;;;;;;73.62;30.62;;;;;;;1.44;100.00;98761.69;4393719;32;20102;-96
2022/12/22 07:13:20;;;;;;;67.43;26.17;;;;;;;1.45;100.00;98760.75;4404635;32;20500;-96
2022/12/22 07:15:48;;;;;;;64.60;25.55;;;;;;;1.40;100.00;98755.84;4368641;32;20105;-95
2022/12/22 07:18:26;;;;;;;57.08;24.40;;;;;;;1.40;100.00;98748.09;4405023;32;20098;-94
2022/12/22 07:20:53;;;;;;;58.65;23.80;;;;;;;1.49;100.00;98744.22;4392954;32;20095;-94
2022/12/22 07:23:21;;;;;;;59.92;23.33;;;;;;;1.67;100.00;98754.50;4393867;32;20113;-94
2022/12/22 07:25:48;;;;;;;64.18;25.83;;;;;;;1.64;100.00;98759.81;4393905;32;20448;-94
2022/12/22 07:28:15;;;;;;;60.83;26.25;;;;;;;1.77;100.00;98755.66;4393912;32;20094;-94
2022/12/22 07:30:48;;;;;;;61.30;23.95;;;;;;;1.77;100.00;98755.66;4394037;32;20148;-95
2022/12/22 07:33:16;;;;;;;58.78;23.77;;;;;;;1.72;100.00;98765.41;4386002;32;20125;-93
2022/12/22 07:35:44;;;;;;;62.97;23.27;;;;;;;1.81;100.00;98766.66;4407978;32;20149;-95
2022/12/22 07:38:12;;;;;;;58.15;23.50;;;;;;;1.89;100.00;98761.91;4421208;32;20451;-94
2022/12/22 07:40:39;;;;;;;65.15;24.60;;;;;;;2.02;100.00;98764.69;4420779;32;20116;-95
2022/12/22 07:43:09;;;;;;;62.50;25.50;;;;;;;2.04;100.00;98761.06;4408124;32;20449;-96
2022/12/22 07:45:37;;;;;;;69.12;26.10;;;;;;;1.97;100.00;98764.94;4420608;32;20074;-95
2022/12/22 07:50:23;;;;;;;69.32;25.90;;;;;;;1.88;100.00;98784.34;4420408;32;20181;-95
2022/12/22 07:50:52;;;;;;;66.78;26.85;;;;;;;1.97;100.00;98780.44;4408986;32;20086;-95
2022/12/22 07:53:20;;;;;;;68.93;26.80;;;;;;;2.15;100.00;98770.84;4395606;32;20141;-94
2022/12/22 07:55:47;;;;;;;68.35;25.15;;;;;;;2.22;100.00;98769.56;4407067;32;20562;-92
2022/12/22 07:58:14;;;;;;;66.65;26.62;;;;;;;2.31;100.00;98766.47;4395546;32;20145;-95
2022/12/22 08:00:42;;;;;;;61.30;23.73;;;;;;;2.42;100.00;98765.91;4404772;32;99656;-94
2022/12/22 08:03:09;;;;;;;74.55;27.13;;;;;;;2.44;100.00;98776.16;4408825;32;20154;-94
2022/12/22 08:05:37;;;;;;;63.38;25.23;;;;;;;2.47;100.00;98776.81;4408479;32;20174;-93
2022/12/22 08:08:04;;;;;;;68.32;26.45;;;;;;;2.68;100.00;98779.13;4409207;32;20094;-96
2022/12/22 08:10:32;;;;;;;62.70;25.40;;;;;;;2.86;100.00;98771.22;4421534;32;20154;-96
2022/12/22 08:12:59;;;;;;;66.80;26.25;;;;;;;2.89;100.00;98782.22;4408206;32;20130;-96
2022/12/22 08:15:27;;;;;;;61.20;24.30;;;;;;;2.75;100.00;98779.59;4395557;32;20179;-95
2022/12/22 08:17:56;;;;;;;70.87;27.08;;;;;;;2.74;100.00;98786.53;4397053;32;20116;-96
2022/12/22 08:20:24;;;;;;;61.95;24.42;;;;;;;2.75;100.00;98782.19;4398847;32;20105;-96
2022/12/22 08:22:52;;;;;;;65.75;25.70;;;;;;;2.90;100.00;98777.88;4410054;32;20122;-95
2022/12/22 08:25:19;;;;;;;67.12;24.77;;;;;;;3.12;100.00;98770.53;4396197;32;20536;-95
2022/12/22 08:27:50;;;;;;;70.00;26.33;;;;;;;3.29;100.00;98766.13;4396658;32;20105;-96
2022/12/22 08:30:18;;;;;;;70.62;27.95;;;;;;;3.24;100.00;98768.13;4397748;32;20098;-96
2022/12/22 08:32:48;;;;;;;73.68;25.62;;;;;;;3.22;100.00;98765.66;4395819;32;20205;-96
2022/12/22 08:35:15;;;;;;;75.40;24.60;;;;;;;3.17;100.00;98765.91;4395325;32;20144;-96
2022/12/22 08:37:44;;;;;;;69.62;27.98;;;;;;;3.13;100.00;98763.59;4395415;32;20120;-96
2022/12/22 08:40:17;;;;;;;72.15;27.08;;;;;;;2.72;100.00;98765.06;4395672;32;20137;-95
2022/12/22 08:42:46;;;;;;;76.32;26.85;;;;;;;2.67;100.00;98786.03;4395785;32;20114;-96
2022/12/22 08:45:13;;;;;;;67.07;26.08;;;;;;;2.77;100.00;98775.16;4395636;32;20163;-96
2022/12/22 08:47:41;;;;;;;70.95;27.50;;;;;;;2.72;100.00;98784.94;4395429;32;20102;-96
2022/12/22 08:50:09;;;;;;;77.93;27.67;;;;;;;2.74;100.00;98789.13;4382807;32;20156;-95
2022/12/22 08:52:36;;;;;;;73.20;28.27;;;;;;;2.84;100.00;98781.66;4395361;32;20213;-96
2022/12/22 08:55:04;;;;;;;74.68;28.00;;;;;;;2.98;100.00;98781.72;4407649;32;20114;-96
2022/12/22 08:57:31;;;;;;;68.05;25.20;;;;;;;3.12;100.00;98777.47;4395490;32;20094;-96
2022/12/22 08:59:59;;;;;;;77.15;27.75;;;;;;;3.23;100.00;98776.84;4394907;32;20094;-95
2022/12/22 09:02:26;;;;;;;71.70;27.00;;;;;;;3.26;100.00;98769.72;4408765;32;20172;-95
2022/12/22 09:07:46;;;;;;;76.72;29.75;;;;;;;3.62;100.00;98759.81;4410878;32;20090;-96
2022/12/22 09:10:14;;;;;;;73.35;29.33;;;;;;;3.74;100.00;98769.47;4422449;32;20115;-96
2022/12/22 09:12:41;;;;;;;74.85;27.80;;;;;;;3.76;100.00;98766.78;4397584;32;20186;-96
2022/12/22 09:15:09;;;;;;;64.82;24.60;;;;;;;3.84;100.00;98754.16;4397260;32;20078;-96
2022/12/22 09:17:36;;;;;;;64.57;26.08;;;;;;;3.89;100.00;98759.88;4409653;32;20467;-96
2022/12/22 09:20:04;;;;;;;60.97;24.23;;;;;;;3.84;100.00;98764.53;4410009;32;20471;-95
2022/12/22 09:22:32;;;;;;;72.07;25.83;;;;;;;3.73;100.00;98763.44;4397256;32;20106;-96
2022/12/22 09:24:59;;;;;;;62.90;26.12;;;;;;;3.76;100.00;98748.66;4384756;32;20482;-96
2022/12/22 09:27:26;;;;;;;62.62;25.83;;;;;;;3.81;100.00;98746.59;4384617;32;20128;-96
2022/12/22 09:29:54;;;;;;;74.68;29.90;;;;;;;3.72;100.00;98735.87;4397681;32;20686;-96
2022/12/22 09:32:23;;;;;;;77.68;30.98;;;;;;;3.72;100.00;98735.03;4411231;32;20158;-96
2022/12/22 09:34:55;;;;;;;77.47;29.48;;;;;;;3.59;100.00;98731.53;4386660;32;20102;-96
2022/12/22 09:37:23;;;;;;;76.68;31.23;;;;;;;3.51;100.00;98732.84;4399377;32;20595;-96
2022/12/22 09:39:59;;;;;;;73.65;29.75;;;;;;;3.52;100.00;98724.12;4398558;32;20108;-96
2022/12/22 09:42:28;;;;;;;80.93;31.52;;;;;;;3.51;100.00;98732.84;4399534;32;20471;-96
2022/12/22 09:44:56;;;;;;;75.43;29.70;;;;;;;3.57;100.00;98721.25;4398020;32;20479;-96
2022/12/22 09:47:37;;;;;;;76.68;29.87;;;;;;;3.61;100.00;98717.56;4410669;32;20165;-96
2022/12/22 09:50:07;;;;;;;73.05;28.45;;;;;;;3.55;100.00;98730.88;4409668;32;20144;-96
2022/12/22 09:52:35;;;;;;;70.53;27.60;;;;;;;3.52;100.00;98720.72;4397305;32;20763;-96
2022/12/22 09:55:11;;;;;;;68.05;27.95;;;;;;;3.25;100.00;98710.28;4398348;32;20169;-96
2022/12/22 09:57:38;;;;;;;71.62;29.40;;;;;;;2.78;100.00;98701.81;4396827;32;20371;-96
2022/12/22 10:00:14;;;;;;;70.40;27.67;;;;;;;2.88;100.00;98696.91;4410857;32;20153;-96
2022/12/22 10:03:05;;;;;;;57.85;24.25;;;;;;;2.92;100.00;98691.50;4396026;32;20118;-95
2022/12/22 10:05:42;;;;;;;65.85;25.20;;;;;;;2.52;100.00;98686.06;4409058;32;20531;-96
2022/12/22 10:08:12;;;;;;;74.80;27.13;;;;;;;2.77;100.00;98690.66;4397384;32;20094;-96
2022/12/22 10:10:40;;;;;;;78.75;26.12;;;;;;;3.08;100.00;98683.63;4397826;32;20098;-96
2022/12/22 10:13:16;;;;;;;70.32;25.67;;;;;;;3.35;100.00;98686.31;4396666;32;20118;-96
2022/12/22 10:19:15;;;;;;;73.72;26.20;;;;;;;4.04;100.00;98685.53;4411312;32;20108;-96
2022/12/22 10:21:43;;;;;;;63.03;25.75;;;;;;;4.45;100.00;98676.81;4384834;32;20098;-95
2022/12/22 10:24:18;;;;;;;64.18;25.50;;;;;;;4.40;100.00;98671.94;4397745;32;20110;-95
2022/12/22 10:26:45;;;;;;;74.10;28.23;;;;;;;4.20;100.00;98687.97;4409309;32;20133;-96
2022/12/22 10:29:14;;;;;;;76.12;27.98;;;;;;;4.25;100.00;98680.72;4384370;32;20098;-94
2022/12/22 10:32:02;;;;;;;75.35;27.48;;;;;;;4.20;100.00;98669.84;4408951;32;20112;-96
2022/12/22 10:34:31;;;;;;;70.03;28.35;;;;;;;3.68;100.00;98671.38;4398712;32;20165;-96
2022/12/22 10:37:02;;;;;;;65.95;26.02;;;;;;;3.68;100.00;98676.56;4404104;32;20130;-96
2022/12/22 10:39:39;;;;;;;72.22;27.67;;;;;;;3.72;100.00;98665.94;4391294;32;20128;-96
2022/12/22 10:42:18;;;;;;;70.70;26.02;;;;;;;3.45;100.00;98667.63;4385632;32;20083;-96
2022/12/22 10:44:48;;;;;;;81.78;28.73;;;;;;;3.53;100.00;98671.41;4344332;32;20165;-96
2022/12/22 10:47:20;;;;;;;76.82;27.08;;;;;;;3.18;100.00;98669.22;4356033;32;20169;-96
2022/12/22 10:49:50;;;;;;;83.43;32.13;;;;;;;3.40;100.00;98651.56;4372833;32;20107;-96
2022/12/22 10:52:19;;;;;;;85.95;28.95;;;;;;;3.36;100.00;98649.16;4365829;32;20325;-96
2022/12/22 10:55:21;;;;;;;83.05;29.77;;;;;;;3.33;100.00;98640.72;4355708;32;20163;-96
2022/12/22 10:57:49;;;;;;;75.28;29.55;;;;;;;3.25;100.00;98648.97;4346841;33;20111;-95
2022/12/22 11:00:31;;;;;;;83.78;30.85;;;;;;;3.31;100.00;98669.28;4347248;33;20153;-96
2022/12/22 11:03:00;;;;;;;78.43;30.08;;;;;;;3.30;100.00;98670.25;4348763;33;20167;-94
2022/12/22 11:05:29;;;;;;;77.32;28.33;;;;;;;3.55;100.00;98664.38;4324329;33;20122;-96
2022/12/22 11:07:59;;;;;;;71.25;27.23;;;;;;;3.87;100.00;98658.09;4323497;33;20147;-96
2022/12/22 11:10:35;;;;;;;68.37;27.52;;;;;;;3.86;100.00;98656.44;4323887;33;20130;-94
2022/12/22 11:13:34;;;;;;;70.80;26.83;;;;;;;4.00;100.00;98653.81;4342267;32;20162;-96
2022/12/22 11:16:09;;;;;;;63.80;25.30;;;;;;;4.07;100.00;98654.22;4366092;32;20134;-95
2022/12/22 11:18:58;;;;;;;75.95;28.05;;;;;;;4.23;100.00;98649.72;4366788;32;20153;-96
2022/12/22 11:21:35;;;;;;;65.30;25.00;;;;;;;4.31;100.00;98650.97;4378922;32;20090;-94
2022/12/22 11:24:13;;;;;;;73.20;28.35;;;;;;;4.58;100.00;98650.91;4377526;32;20157;-96
2022/12/22 11:26:53;;;;;;;67.07;27.42;;;;;;;4.61;100.00;98648.12;4378094;32;20129;-96
2022/12/22 11:29:52;;;;;;;66.70;27.35;;;;;;;4.70;100.00;98641.50;4377771;32;20121;-95
2022/12/22 11:32:40;;;;;;;79.62;30.05;;;;;;;4.58;100.00;98636.19;4377888;32;20095;-95
2022/12/22 11:35:47;;;;;;;81.10;28.80;;;;;;;4.46;100.00;98629.22;4384258;32;20182;-94
2022/12/22 11:38:14;;;;;;;72.57;29.08;;;;;;;4.13;100.00;98627.06;4394191;32;20489;-95
2022/12/22 11:40:48;;;;;;;72.07;28.92;;;;;;;4.15;100.00;98620.03;4379142;32;20115;-94
2022/12/22 11:43:32;;;;;;;73.20;27.40;;;;;;;4.15;100.00;98630.41;4366600;32;20121;-94
2022/12/22 11:46:34;;;;;;;67.87;26.00;;;;;;;4.10;100.00;98630.69;4380196;32;20130;-96
2022/12/22 11:49:20;;;;;;;71.50;26.27;;;;;;;3.98;100.00;98647.91;4366344;32;20128;-95
2022/12/22 11:52:31;;;;;;;72.70;27.70;;;;;;;3.74;100.00;98645.09;4379384;32;20136;-95
2022/12/22 11:55:00;;;;;;;75.43;27.92;;;;;;;4.04;100.00;98637.13;4320390;33;20233;-96
2022/12/22 11:57:39;;;;;;;61.25;27.67;;;;;;;4.25;100.00;98650.47;4332651;33;20516;-96
2022/12/22 12:00:09;;;;;;;64.87;25.70;;;;;;;4.60;100.00;98646.44;4320245;33;20526;-96
2022/12/22 12:02:55;;;;;;;62.40;25.30;;;;;;;4.94;100.00;98646.78;4332407;33;20191;-95
2022/12/22 12:05:36;;;;;;;62.25;26.37;;;;;;;5.10;100.00;98642.22;4320235;33;20110;-96
2022/12/22 12:11:46;;;;;;;70.07;25.42;;;;;;;4.70;100.00;98623.31;4332603;33;20126;-96
2022/12/22 12:14:28;;;;;;;68.40;25.88;;;;;;;5.07;100.00;98633.78;4320235;33;20179;-96
2022/12/22 12:17:02;;;;;;;65.45;27.55;;;;;;;5.17;100.00;98636.59;4320544;33;20166;-95
2022/12/22 12:20:01;;;;;;;84.05;28.08;;;;;;;4.92;100.00;98639.09;4296215;33;20100;-96
2022/12/22 12:22:39;;;;;;;76.32;26.85;;;;;;;4.75;100.00;98631.63;4332196;33;20131;-95
2022/12/22 12:25:22;;;;;;;62.35;26.17;;;;;;;4.81;100.00;98626.00;4332216;33;20580;-96
2022/12/22 12:28:10;;;;;;;68.55;26.48;;;;;;;4.72;100.00;98617.09;4335400;32;20108;-96
2022/12/22 12:30:58;;;;;;;64.40;26.02;;;;;;;4.75;100.00;98616.06;4379140;32;20173;-95
2022/12/22 12:36:43;;;;;;;74.60;28.73;;;;;;;4.62;100.00;98623.84;4379790;32;20157;-96
2022/12/22 12:39:18;;;;;;;73.78;26.90;;;;;;;4.52;100.00;98635.75;4380656;32;20091;-96
2022/12/22 12:42:24;;;;;;;64.35;27.33;;;;;;;4.44;100.00;98636.28;4367256;32;20113;-95
2022/12/22 12:44:52;;;;;;;69.82;27.70;;;;;;;4.66;100.00;98659.00;4373186;32;20107;-95
2022/12/22 12:47:31;;;;;;;67.70;28.40;;;;;;;4.93;100.00;98647.72;4392057;32;20114;-96
2022/12/22 12:50:18;;;;;;;76.22;29.70;;;;;;;5.09;100.00;98648.34;4392142;32;20121;-95
2022/12/22 12:56:16;;;;;;;72.60;28.60;;;;;;;4.82;100.00;98655.41;4380692;32;20225;-96
2022/12/22 12:58:45;;;;;;;84.13;31.30;;;;;;;4.60;100.00;98641.25;4391794;32;20133;-95
2022/12/22 13:01:18;;;;;;;76.15;30.75;;;;;;;4.46;100.00;98643.97;4383347;32;20117;-96
2022/12/22 13:03:46;;;;;;;81.63;31.12;;;;;;;4.57;100.00;98654.44;4394652;32;20498;-96
2022/12/22 13:06:46;;;;;;;68.30;28.35;;;;;;;4.74;100.00;98636.00;4384005;32;20121;-95
2022/12/22 13:09:21;;;;;;;67.90;28.67;;;;;;;4.66;100.00;98625.28;4381971;32;20546;-95
2022/12/22 13:12:39;;;;;;;70.28;28.02;;;;;;;4.85;100.00;98631.84;4394240;32;20549;-95
2022/12/22 13:15:30;;;;;;;68.95;29.77;;;;;;;4.73;100.00;98626.53;4382416;32;20090;-96
2022/12/22 13:17:59;;;;;;;70.50;29.58;;;;;;;4.71;100.00;98631.00;4370899;32;20130;-96
2022/12/22 13:20:33;;;;;;;64.72;27.42;;;;;;;4.69;100.00;98632.84;4370002;32;20098;-96
2022/12/22 13:23:03;;;;;;;71.37;27.70;;;;;;;4.50;100.00;98635.88;4369980;32;20157;-96
2022/12/22 13:25:41;;;;;;;74.32;29.42;;;;;;;4.53;100.00;98632.25;4381880;32;20108;-96
2022/12/22 13:28:16;;;;;;;65.82;27.65;;;;;;;4.44;100.00;98633.69;4394568;32;20103;-96
2022/12/22 13:30:48;;;;;;;71.18;28.90;;;;;;;4.37;100.00;98628.06;4369744;32;20140;-95
2022/12/22 13:33:18;;;;;;;81.22;30.58;;;;;;;4.28;100.00;98623.47;4382023;32;20094;-96
2022/12/22 13:35:46;;;;;;;65.62;28.48;;;;;;;4.08;100.00;98617.00;4369365;32;20210;-95
2022/12/22 13:38:26;;;;;;;67.97;28.05;;;;;;;4.01;100.00;98620.94;4370645;32;20538;-96
2022/12/22 13:40:55;;;;;;;76.20;29.75;;;;;;;4.12;100.00;98607.25;4382152;32;20149;-95
2022/12/22 13:43:23;;;;;;;74.40;30.80;;;;;;;4.16;100.00;98613.91;4381828;32;20114;-96
2022/12/22 13:45:55;;;;;;;73.62;31.67;;;;;;;4.13;100.00;98601.16;4381729;32;20090;-96
2022/12/22 13:48:33;;;;;;;71.50;29.45;;;;;;;4.24;100.00;98599.53;4381592;32;20459;-96
2022/12/22 13:51:31;;;;;;;72.50;31.62;;;;;;;4.15;100.00;98596.69;4382820;32;20106;-95
2022/12/22 13:54:10;;;;;;;103.55;38.08;;;;;;;3.99;100.00;98589.91;4382073;32;20152;-96
2022/12/22 13:56:50;;;;;;;77.62;31.35;;;;;;;3.66;100.00;98585.97;4381804;32;20086;-96
2022/12/22 13:59:24;;;;;;;80.40;34.53;;;;;;;3.62;100.00;98592.31;4394165;32;20372;-96
2022/12/22 14:02:01;;;;;;;89.20;35.10;;;;;;;3.60;100.00;98594.12;4381922;32;20102;-95
2022/12/22 14:04:30;;;;;;;77.90;32.45;;;;;;;3.33;100.00;98587.19;4396109;32;20162;-96
2022/12/22 14:07:11;;;;;;;94.43;34.22;;;;;;;3.18;100.00;98581.22;4381758;32;20133;-95
2022/12/22 14:09:50;;;;;;;79.95;31.33;;;;;;;3.01;100.00;98579.69;4381580;32;20114;-95
2022/12/22 14:12:29;;;;;;;79.40;30.15;;;;;;;3.00;100.00;98575.41;4381586;32;20106;-96
2022/12/22 14:14:59;;;;;;;81.40;29.83;;;;;;;2.83;100.00;98576.44;4381608;32;20475;-96
2022/12/22 14:17:27;;;;;;;72.47;29.67;;;;;;;2.93;100.00;98581.88;4381773;32;20082;-96
2022/12/22 14:19:59;;;;;;;72.68;29.10;;;;;;;2.96;100.00;98583.47;4394082;32;20110;-96
2022/12/22 14:22:29;;;;;;;76.37;30.30;;;;;;;2.92;100.00;98577.66;4394106;32;20129;-96
2022/12/22 14:25:03;;;;;;;83.85;29.37;;;;;;;2.82;100.00;98584.31;4394042;32;20171;-96
2022/12/22 14:27:31;;;;;;;91.63;30.92;;;;;;;2.80;100.00;98597.34;4393779;32;20094;-95
2022/12/22 14:30:01;;;;;;;88.55;32.63;;;;;;;2.81;100.00;98592.97;4395605;32;20447;-96
2022/12/22 14:32:49;;;;;;;84.45;33.80;;;;;;;2.90;100.00;98587.25;4394947;32;20156;-95
2022/12/22 14:35:21;;;;;;;86.60;33.13;;;;;;;2.95;100.00;98590.41;4394798;32;20129;-95
2022/12/22 14:37:49;;;;;;;84.10;33.35;;;;;;;2.86;100.00;98603.03;4393651;32;20161;-95
2022/12/22 14:40:37;;;;;;;80.38;30.40;;;;;;;2.94;100.00;98608.59;4393224;32;20103;-94
2022/12/22 14:43:17;;;;;;;77.87;31.17;;;;;;;2.95;100.00;98621.44;4381218;32;20528;-95
2022/12/22 14:45:47;;;;;;;86.78;32.47;;;;;;;2.88;100.00;98627.06;4394592;32;20082;-96
2022/12/22 14:48:32;;;;;;;91.03;33.15;;;;;;;2.75;100.00;98643.31;4393662;32;20090;-95
2022/12/22 14:51:01;;;;;;;82.35;31.17;;;;;;;2.76;100.00;98626.06;4393534;32;20118;-95
2022/12/22 14:53:52;;;;;;;86.03;32.97;;;;;;;2.76;100.00;98636.41;4393702;32;20098;-96
2022/12/22 14:56:21;;;;;;;78.62;30.55;;;;;;;2.78;100.00;98630.19;4363906;32;20115;-95
2022/12/22 14:58:49;;;;;;;78.30;31.20;;;;;;;2.80;100.00;98635.28;4381396;32;20063;-96
2022/12/22 15:01:26;;;;;;;95.40;31.30;;;;;;;2.82;100.00;98651.56;4380825;32;20098;-96
2022/12/22 15:04:16;;;;;;;83.62;31.50;;;;;;;2.72;100.00;98650.44;4369932;32;20588;-95
2022/12/22 15:06:46;;;;;;;79.93;29.63;;;;;;;2.76;100.00;98641.59;4393069;32;20094;-94
2022/12/22 15:09:14;;;;;;;81.90;31.45;;;;;;;2.84;100.00;98639.34;4397165;32;20090;-96
2022/12/22 15:11:45;;;;;;;80.30;30.10;;;;;;;2.81;100.00;98644.72;4392919;32;20102;-95
2022/12/22 15:14:19;;;;;;;78.00;31.33;;;;;;;2.74;100.00;98638.25;4393474;32;20118;-94
2022/12/22 15:16:46;;;;;;;86.72;31.92;;;;;;;2.79;100.00;98626.69;4393208;32;20156;-95
2022/12/22 15:19:15;;;;;;;79.37;30.90;;;;;;;2.83;100.00;98612.66;4394518;32;20086;-94
2022/12/22 15:21:42;;;;;;;74.62;31.20;;;;;;;2.80;100.00;98612.84;4405302;32;20115;-95
2022/12/22 15:24:15;;;;;;;73.00;32.05;;;;;;;2.77;100.00;98617.34;4393745;32;20145;-94
2022/12/22 15:26:43;;;;;;;81.93;30.95;;;;;;;2.79;100.00;98605.19;4393872;32;20161;-94
2022/12/22 15:29:10;;;;;;;83.60;33.78;;;;;;;2.80;100.00;98596.47;4405136;32;20098;-94
2022/12/22 15:31:39;;;;;;;91.18;32.63;;;;;;;2.75;100.00;98594.16;4393617;32;20099;-94
2022/12/22 15:34:18;;;;;;;88.00;33.80;;;;;;;2.80;100.00;98605.09;4392363;32;20145;-95
2022/12/22 15:36:45;;;;;;;91.85;35.22;;;;;;;2.82;100.00;98589.47;4405062;32;20111;-93